Pine Valley, Texas
Current Conditions -  °F | °C
As of 10:53 PM on Saturday 22 Nov 2014 (Local Time) from KLFK Reporting Station
Overcast Overcast  
Wind Chill: 68°   Ceiling: 900
Heat Index: 68°   Visibility: 10mi
Dew Point: 63°   Wind: 7mph
Humidity: 84%   Direction: 140°SE
Pressure: 29.78"   Gusts: NA
Location:  31.1753°N, 94.7371°W
Report Text: KLFK 230453Z AUTO 14006KT 10SM BKN009 OVC014 20/17 A2978 RMK AO2 RAE03 CIG 006V012 SLP080 P0000 T02000172
Loading
Personal Weather Stations






























Interactive Weather Map New forecast layout! Learn more

10-Day Weather Forecast

Advertisements
Track Severe Weather on mobile